Time;durP1;ratioP1;P1;durP2;ratioP2;P2;SDS_P1;SDS_P2;PMS_P1;PMS_P2;Temp;Humidity;BMP_temperature;BMP_pressure;BME280_temperature;BME280_humidity;BME280_pressure;Samples;Min_cycle;Max_cycle;Signal;HPM_P1;HPM_P2
2020/12/13 00:01:45;;;;;;;11.52;8.23;;;8.60;80.00;;;;;;5014312;28;20049;-43
2020/12/13 00:04:10;;;;;;;12.50;8.30;;;8.60;80.00;;;;;;5028709;28;20482;-41
2020/12/13 00:06:36;;;;;;;11.05;7.93;;;8.60;80.00;;;;;;5018321;28;20060;-40
2020/12/13 00:09:22;;;;;;;13.00;8.35;;;8.60;80.00;;;;;;5006829;28;20079;-44
2020/12/13 00:11:47;;;;;;;10.52;7.47;;;8.60;80.00;;;;;;5033512;28;20088;-52
2020/12/13 00:14:13;;;;;;;10.23;7.63;;;8.60;80.00;;;;;;5019926;28;20560;-42
2020/12/13 00:16:39;;;;;;;10.80;7.88;;;8.60;80.70;;;;;;5032062;28;20559;-44
2020/12/13 00:19:25;;;;;;;10.40;7.72;;;8.60;80.00;;;;;;5019008;28;20107;-42
2020/12/13 00:22:11;;;;;;;;;;;8.60;80.10;;;;;;5019401;28;20045;-41
2020/12/13 00:24:37;;;;;;;;;;;8.60;80.00;;;;;;5025346;28;19928;-44
2020/12/13 00:27:02;;;;;;;11.52;7.53;;;8.60;80.00;;;;;;5017073;28;19963;-48
2020/12/13 00:29:28;;;;;;;9.93;7.07;;;8.60;80.10;;;;;;5014941;28;20177;-41
2020/12/13 00:32:14;;;;;;;11.77;8.60;;;8.60;80.00;;;;;;4999377;28;20056;-40
2020/12/13 00:34:40;;;;;;;10.50;7.65;;;8.60;80.10;;;;;;5017580;28;20049;-38
2020/12/13 00:37:05;;;;;;;11.63;7.75;;;8.60;80.10;;;;;;5019139;28;20081;-43
2020/12/13 00:39:34;;;;;;;10.73;7.57;;;8.60;80.10;;;;;;5013760;28;20413;-41
2020/12/13 00:42:00;;;;;;;12.60;8.32;;;8.60;80.10;;;;;;5013481;28;20070;-38
2020/12/13 00:44:45;;;;;;;11.55;8.45;;;8.60;80.10;;;;;;5000175;28;20076;-43
2020/12/13 00:47:31;;;;;;;10.13;7.22;;;8.60;80.10;;;;;;4998949;28;20141;-38
2020/12/13 00:50:17;;;;;;;10.10;7.28;;;8.60;80.10;;;;;;4998746;28;20050;-39
2020/12/13 00:52:44;;;;;;;11.50;8.13;;;8.60;80.10;;;;;;5013338;28;20137;-46
2020/12/13 00:55:10;;;;;;;10.70;7.40;;;8.60;80.10;;;;;;5021756;28;20501;-38
2020/12/13 00:57:35;;;;;;;10.23;7.05;;;8.60;80.10;;;;;;5033108;28;20083;-40
2020/12/13 01:00:01;;;;;;;10.50;7.13;;;8.60;80.10;;;;;;5031136;28;20064;-40
2020/12/13 01:02:27;;;;;;;9.63;6.90;;;8.60;80.10;;;;;;5033164;28;20050;-41
2020/12/13 01:04:53;;;;;;;9.40;7.15;;;8.60;80.10;;;;;;5032374;28;20052;-43
2020/12/13 01:07:38;;;;;;;;;;;8.60;80.20;;;;;;5018235;28;20049;-40
2020/12/13 01:10:04;;;;;;;;;;;8.60;80.10;;;;;;5029475;28;19975;-39
2020/12/13 01:12:31;;;;;;;10.82;7.00;;;8.60;80.10;;;;;;5032094;28;19975;-41
2020/12/13 01:15:17;;;;;;;10.57;7.13;;;8.60;80.10;;;;;;5011666;28;20108;-42
2020/12/13 01:17:47;;;;;;;10.00;6.88;;;8.60;80.10;;;;;;5013101;28;20117;-41
2020/12/13 01:20:14;;;;;;;10.82;7.47;;;8.60;80.20;;;;;;5019046;28;20084;-38
2020/12/13 01:22:41;;;;;;;10.45;7.03;;;8.60;80.20;;;;;;5032834;28;20052;-40
2020/12/13 01:25:07;;;;;;;10.13;6.75;;;8.60;80.20;;;;;;5024752;28;20057;-41
2020/12/13 01:27:53;;;;;;;10.40;7.53;;;8.60;80.20;;;;;;5017314;28;20049;-52
2020/12/13 01:30:19;;;;;;;9.93;7.00;;;8.60;80.10;;;;;;5003755;28;20482;-42
2020/12/13 01:32:44;;;;;;;9.68;6.63;;;8.60;80.20;;;;;;5014954;28;20057;-41
2020/12/13 01:35:30;;;;;;;9.27;6.22;;;8.60;80.20;;;;;;4997722;28;20516;-41
2020/12/13 01:37:56;;;;;;;9.07;6.32;;;8.60;80.20;;;;;;5012690;28;20050;-38
2020/12/13 01:40:21;;;;;;;8.30;6.57;;;8.60;80.20;;;;;;5018962;28;20474;-40
2020/12/13 01:42:47;;;;;;;9.32;6.60;;;8.60;80.20;;;;;;5030882;28;20055;-41
2020/12/13 01:45:18;;;;;;;8.02;6.03;;;8.60;80.20;;;;;;5030343;28;20092;-42
2020/12/13 01:48:04;;;;;;;7.15;6.10;;;8.60;80.20;;;;;;4998254;28;20092;-43
2020/12/13 01:53:18;;;;;;;8.82;6.43;;;8.60;80.20;;;;;;5013349;28;20046;-46
2020/12/13 01:55:48;;;;;;;9.15;6.13;;;8.60;80.20;;;;;;5012535;28;20144;-43
2020/12/13 01:58:29;;;;;;;7.88;6.20;;;8.60;80.20;;;;;;5012385;28;20050;-39
2020/12/13 02:00:56;;;;;;;9.40;6.63;;;8.70;80.20;;;;;;5022723;28;20071;-44
2020/12/13 02:03:24;;;;;;;9.48;6.40;;;8.60;80.20;;;;;;5030628;28;20414;-39
2020/12/13 02:06:15;;;;;;;10.02;6.78;;;8.60;80.20;;;;;;5017580;28;20136;-38
2020/12/13 02:09:01;;;;;;;8.63;6.32;;;8.60;80.20;;;;;;4997975;28;20498;-39
2020/12/13 02:11:48;;;;;;;9.32;6.03;;;8.60;80.20;;;;;;4998075;28;20100;-40
2020/12/13 02:14:33;;;;;;;7.57;5.57;;;8.60;80.20;;;;;;5016314;28;20057;-39
2020/12/13 02:17:20;;;;;;;8.48;5.95;;;8.70;80.20;;;;;;5017368;28;20557;-52
2020/12/13 02:19:46;;;;;;;7.97;5.90;;;8.60;80.20;;;;;;5025860;28;20136;-42
2020/12/13 02:22:33;;;;;;;8.50;6.65;;;8.60;80.20;;;;;;4998610;28;20046;-41
2020/12/13 02:25:21;;;;;;;;;;;8.70;80.20;;;;;;5014623;28;20045;-41
2020/12/13 02:27:47;;;;;;;7.85;6.22;;;8.60;80.10;;;;;;5033716;28;19921;-40
2020/12/13 02:30:13;;;;;;;7.78;6.20;;;8.70;80.20;;;;;;5015777;28;20058;-39
2020/12/13 02:32:39;;;;;;;7.65;5.50;;;8.60;80.20;;;;;;5016371;28;20053;-44
2020/12/13 02:35:24;;;;;;;9.40;6.38;;;8.60;80.20;;;;;;5006820;28;20520;-40
2020/12/13 02:37:50;;;;;;;8.85;6.45;;;8.60;80.20;;;;;;5016043;28;20050;-40
2020/12/13 02:40:16;;;;;;;9.27;5.63;;;8.60;80.20;;;;;;5025991;28;20103;-50
2020/12/13 02:42:42;;;;;;;7.75;6.03;;;8.60;80.20;;;;;;5035555;28;20041;-41
2020/12/13 02:45:08;;;;;;;8.15;5.30;;;8.70;80.30;;;;;;5033225;28;20045;-41
2020/12/13 02:47:53;;;;;;;6.80;5.57;;;8.60;80.20;;;;;;5013021;28;20053;-42
2020/12/13 02:50:39;;;;;;;8.05;5.95;;;8.60;80.20;;;;;;5013956;28;20049;-44
2020/12/13 02:53:05;;;;;;;7.63;6.80;;;8.60;80.20;;;;;;5033711;28;20494;-47
2020/12/13 02:55:51;;;;;;;9.52;5.70;;;8.60;80.20;;;;;;5018867;28;20065;-41
2020/12/13 02:58:36;;;;;;;7.35;5.70;;;8.60;80.20;;;;;;5014115;28;20042;-39
2020/12/13 03:01:02;;;;;;;9.25;6.03;;;8.60;80.20;;;;;;5015497;28;20065;-41
2020/12/13 03:03:28;;;;;;;8.00;6.47;;;8.60;80.20;;;;;;5019898;28;20041;-42
2020/12/13 03:05:54;;;;;;;7.60;5.15;;;8.70;80.30;;;;;;5033316;28;20049;-41
2020/12/13 03:08:19;;;;;;;7.95;5.63;;;8.60;80.20;;;;;;5034817;28;20111;-40
2020/12/13 03:10:45;;;;;;;8.45;5.80;;;8.60;80.20;;;;;;5034832;28;20191;-39
2020/12/13 03:13:11;;;;;;;9.13;6.10;;;8.70;80.20;;;;;;5034851;28;20519;-48
2020/12/13 03:15:36;;;;;;;7.68;5.60;;;8.60;80.20;;;;;;5034427;28;20064;-43
2020/12/13 03:18:02;;;;;;;8.13;5.28;;;8.70;80.20;;;;;;5030112;28;20041;-41
2020/12/13 03:20:28;;;;;;;8.77;5.60;;;8.70;80.20;;;;;;5015179;28;20073;-40
2020/12/13 03:22:54;;;;;;;7.80;5.38;;;8.60;80.20;;;;;;5016332;28;20065;-42
2020/12/13 03:25:19;;;;;;;7.20;5.63;;;8.70;80.20;;;;;;5023876;28;20045;-44
2020/12/13 03:27:45;;;;;;;7.47;5.15;;;8.70;80.20;;;;;;5015754;28;20054;-43
2020/12/13 03:30:11;;;;;;;8.35;5.22;;;8.60;80.10;;;;;;5029136;28;20132;-43
2020/12/13 03:32:36;;;;;;;8.10;5.90;;;8.70;80.20;;;;;;5034797;28;20045;-46
2020/12/13 03:35:04;;;;;;;8.25;5.35;;;8.70;80.20;;;;;;5033506;28;20076;-40
2020/12/13 03:37:49;;;;;;;6.45;4.95;;;8.70;80.20;;;;;;5018269;28;20060;-42
2020/12/13 03:40:36;;;;;;;7.57;5.03;;;8.70;80.20;;;;;;5007678;28;20042;-42
2020/12/13 03:43:21;;;;;;;7.72;5.45;;;8.70;80.30;;;;;;5000201;28;20050;-41
2020/12/13 03:45:47;;;;;;;7.90;5.28;;;8.70;80.20;;;;;;5015639;28;20046;-41
2020/12/13 03:48:13;;;;;;;7.30;5.70;;;8.60;80.20;;;;;;5015515;28;20053;-39
2020/12/13 03:50:38;;;;;;;9.25;5.78;;;8.70;80.20;;;;;;5034383;28;20482;-39
2020/12/13 03:53:24;;;;;;;7.28;5.53;;;8.70;80.20;;;;;;5006247;28;20075;-43
2020/12/13 03:55:50;;;;;;;7.57;5.45;;;8.60;80.20;;;;;;5033547;28;20049;-41
2020/12/13 03:58:15;;;;;;;7.70;5.10;;;8.70;80.30;;;;;;5032913;28;20136;-40
2020/12/13 04:00:41;;;;;;;7.65;5.15;;;8.70;80.20;;;;;;5033412;28;20080;-41
2020/12/13 04:03:27;;;;;;;8.30;5.90;;;8.70;80.20;;;;;;5017949;28;20054;-41
2020/12/13 04:05:52;;;;;;;7.55;4.80;;;8.70;80.20;;;;;;5014274;28;20129;-41
2020/12/13 04:08:18;;;;;;;8.40;5.45;;;8.70;80.20;;;;;;5029035;28;20045;-42
2020/12/13 04:11:04;;;;;;;7.25;5.22;;;8.70;80.30;;;;;;5016919;28;20545;-42
2020/12/13 04:13:49;;;;;;;8.30;5.90;;;8.70;80.20;;;;;;5019106;28;20387;-42
2020/12/13 04:16:15;;;;;;;8.27;5.32;;;8.60;80.20;;;;;;5033273;28;20112;-48
2020/12/13 04:19:00;;;;;;;7.10;5.28;;;8.70;80.30;;;;;;5018944;28;20053;-40
2020/12/13 04:21:46;;;;;;;7.80;5.20;;;8.70;80.20;;;;;;4999457;28;20103;-40
2020/12/13 04:24:12;;;;;;;7.35;4.78;;;8.70;80.30;;;;;;5014982;28;20057;-42
2020/12/13 04:26:38;;;;;;;6.93;4.95;;;8.70;80.30;;;;;;5033452;28;20049;-41
2020/12/13 04:29:24;;;;;;;6.88;4.70;;;8.70;80.30;;;;;;5015967;28;20050;-39
2020/12/13 04:31:50;;;;;;;8.82;5.57;;;8.60;80.20;;;;;;5014784;28;20060;-43
2020/12/13 04:34:36;;;;;;;6.70;5.68;;;8.70;80.30;;;;;;5003501;28;20052;-42
2020/12/13 04:37:23;;;;;;;8.52;5.43;;;8.70;80.30;;;;;;5017735;28;20414;-42
2020/12/13 04:39:51;;;;;;;7.95;5.05;;;8.70;80.30;;;;;;5033351;28;20068;-39
2020/12/13 04:42:16;;;;;;;6.60;4.93;;;8.70;80.30;;;;;;5031007;28;20508;-38
2020/12/13 04:45:08;;;;;;;6.97;5.05;;;8.70;80.30;;;;;;5018814;28;20050;-43
2020/12/13 04:47:44;;;;;;;8.20;4.97;;;8.70;80.30;;;;;;5016234;28;20088;-52
2020/12/13 04:50:32;;;;;;;6.65;4.75;;;8.70;80.30;;;;;;4998890;28;20050;-40
2020/12/13 04:53:19;;;;;;;7.07;4.63;;;8.70;80.30;;;;;;4999822;28;20137;-41
2020/12/13 04:56:10;;;;;;;5.85;4.70;;;8.70;80.30;;;;;;5014634;28;20088;-41
2020/12/13 04:58:36;;;;;;;7.32;4.65;;;8.70;80.20;;;;;;5033120;28;20041;-42
2020/12/13 05:01:21;;;;;;;8.10;5.18;;;8.70;80.30;;;;;;4999315;28;20407;-40
2020/12/13 05:03:47;;;;;;;7.38;4.95;;;8.70;80.20;;;;;;4996646;28;20056;-41
2020/12/13 05:06:13;;;;;;;8.23;5.30;;;8.70;80.20;;;;;;5030236;28;20141;-39
2020/12/13 05:08:39;;;;;;;8.23;5.45;;;8.70;80.30;;;;;;5032613;28;20057;-38
2020/12/13 05:11:05;;;;;;;7.20;4.80;;;8.70;80.20;;;;;;5032656;28;20067;-44
2020/12/13 05:13:30;;;;;;;7.47;4.97;;;8.70;80.20;;;;;;5030963;28;20073;-53
2020/12/13 05:15:56;;;;;;;6.55;4.22;;;8.70;80.20;;;;;;5032647;28;20057;-44
2020/12/13 05:18:23;;;;;;;7.90;4.72;;;8.70;80.20;;;;;;5031420;28;20041;-41
2020/12/13 05:21:08;;;;;;;7.38;5.13;;;8.70;80.20;;;;;;5015699;28;20048;-48
2020/12/13 05:23:54;;;;;;;5.88;4.63;;;8.70;80.20;;;;;;5016280;28;20049;-48
2020/12/13 05:26:22;;;;;;;6.50;4.80;;;8.70;80.20;;;;;;5032119;28;20050;-48
2020/12/13 05:28:52;;;;;;;7.45;4.75;;;8.70;80.20;;;;;;5032144;28;20049;-41
2020/12/13 05:31:21;;;;;;;7.15;4.85;;;8.70;80.20;;;;;;5019251;28;20054;-44
2020/12/13 05:34:05;;;;;;;6.03;4.75;;;8.70;80.30;;;;;;5021361;28;20052;-50
2020/12/13 05:36:39;;;;;;;6.55;4.57;;;8.70;80.20;;;;;;5026210;28;20053;-42
2020/12/13 05:39:04;;;;;;;7.07;4.78;;;8.70;80.20;;;;;;5030522;28;20045;-41
2020/12/13 05:41:51;;;;;;;5.63;4.68;;;8.70;80.20;;;;;;4999243;28;20058;-43
2020/12/13 05:51:58;;;;;;;6.32;4.50;;;8.70;80.20;;;;;;4998167;28;20053;-40
2020/12/13 05:54:25;;;;;;;7.03;5.03;;;8.70;80.20;;;;;;5012683;28;20053;-45
2020/12/13 05:56:58;;;;;;;6.93;4.45;;;8.70;80.20;;;;;;5013617;28;20517;-45
2020/12/13 05:59:25;;;;;;;5.93;4.32;;;8.70;80.20;;;;;;5017726;28;20053;-38
2020/12/13 06:01:53;;;;;;;7.00;4.88;;;8.70;80.20;;;;;;5036246;28;20065;-42
2020/12/13 06:04:24;;;;;;;5.30;4.15;;;8.70;80.20;;;;;;5036360;28;20049;-39
2020/12/13 06:06:55;;;;;;;6.43;4.63;;;8.70;80.20;;;;;;5017528;28;20104;-50
2020/12/13 06:09:33;;;;;;;5.45;3.95;;;8.70;80.20;;;;;;5025970;28;20091;-40
2020/12/13 06:12:11;;;;;;;5.00;3.88;;;8.70;80.20;;;;;;5036196;28;20420;-38
2020/12/13 06:14:39;;;;;;;5.53;3.85;;;8.70;80.20;;;;;;5033271;28;20080;-39
2020/12/13 06:17:05;;;;;;;6.68;4.43;;;8.70;80.10;;;;;;5026253;28;20466;-45
2020/12/13 06:19:33;;;;;;;7.20;4.50;;;8.70;80.10;;;;;;5016272;28;20053;-49
2020/12/13 06:22:00;;;;;;;6.03;4.53;;;8.70;80.10;;;;;;5022795;28;20561;-39
2020/12/13 06:24:27;;;;;;;6.10;4.45;;;8.70;80.10;;;;;;5036058;28;20049;-39
2020/12/13 06:26:54;;;;;;;6.55;4.70;;;8.70;80.10;;;;;;5033905;28;20054;-44
2020/12/13 06:29:21;;;;;;;4.85;3.80;;;8.70;80.10;;;;;;5032797;28;20065;-41
2020/12/13 06:31:48;;;;;;;5.55;3.90;;;8.70;80.10;;;;;;5025631;28;20049;-41
2020/12/13 06:34:14;;;;;;;5.50;4.28;;;8.70;80.10;;;;;;5033535;28;20104;-45
2020/12/13 06:37:04;;;;;;;5.22;3.80;;;8.70;80.10;;;;;;5008960;28;20073;-39
2020/12/13 06:39:31;;;;;;;4.72;3.83;;;8.70;80.20;;;;;;5030907;28;20069;-41
2020/12/13 06:42:02;;;;;;;5.78;4.13;;;8.70;80.10;;;;;;5015745;28;20125;-42
2020/12/13 06:44:28;;;;;;;6.15;4.68;;;8.70;80.10;;;;;;5018666;28;20050;-44
2020/12/13 06:46:54;;;;;;;5.75;4.05;;;8.70;80.10;;;;;;5035525;28;20065;-39
2020/12/13 06:49:19;;;;;;;5.15;3.92;;;8.70;80.10;;;;;;5024614;28;20042;-41
2020/12/13 06:52:05;;;;;;;5.47;3.83;;;8.70;80.10;;;;;;5001110;28;20053;-41
2020/12/13 06:54:31;;;;;;;7.35;4.22;;;8.70;80.10;;;;;;5019402;28;20042;-40
2020/12/13 06:57:07;;;;;;;4.65;3.78;;;8.70;80.10;;;;;;5035108;28;20049;-39
2020/12/13 06:59:34;;;;;;;4.55;3.72;;;8.70;80.10;;;;;;5032999;28;20049;-40
2020/12/13 07:02:00;;;;;;;5.38;3.85;;;8.70;80.10;;;;;;5035179;28;20045;-42
2020/12/13 07:04:27;;;;;;;5.50;4.15;;;8.70;80.10;;;;;;5034938;28;20133;-42
2020/12/13 07:09:23;;;;;;;5.57;4.10;;;8.70;80.10;;;;;;5032332;28;20041;-42
2020/12/13 07:11:50;;;;;;;5.40;3.72;;;8.70;80.10;;;;;;5034857;28;20136;-40
2020/12/13 07:14:17;;;;;;;5.88;3.95;;;8.70;80.10;;;;;;5034136;28;20049;-41
2020/12/13 07:16:48;;;;;;;5.25;4.20;;;8.70;80.10;;;;;;5026276;28;20052;-46
2020/12/13 07:19:17;;;;;;;6.43;4.25;;;8.70;80.70;;;;;;5015041;28;20053;-41
2020/12/13 07:22:09;;;;;;;4.55;3.38;;;8.70;80.10;;;;;;5001458;28;20128;-39
2020/12/13 07:24:35;;;;;;;5.55;4.10;;;8.70;80.10;;;;;;5018959;28;20053;-42
2020/12/13 07:27:22;;;;;;;5.40;3.92;;;8.70;80.10;;;;;;5012461;28;20095;-40
2020/12/13 07:29:50;;;;;;;4.82;3.90;;;8.70;80.10;;;;;;5034176;28;20477;-45
2020/12/13 07:32:16;;;;;;;5.10;3.45;;;8.70;80.10;;;;;;5033999;28;20132;-42
2020/12/13 07:34:41;;;;;;;5.63;4.05;;;8.70;80.10;;;;;;5033803;28;20145;-42
2020/12/13 07:37:07;;;;;;;5.13;4.10;;;8.70;80.10;;;;;;5032486;28;20053;-41
2020/12/13 07:39:33;;;;;;;4.97;3.28;;;8.70;80.10;;;;;;5032997;28;20490;-40
2020/12/13 07:41:58;;;;;;;5.05;3.90;;;8.70;80.10;;;;;;5032970;28;20103;-40
2020/12/13 07:44:24;;;;;;;4.95;4.03;;;8.70;80.10;;;;;;5033971;28;20048;-42
2020/12/13 07:46:50;;;;;;;6.10;4.20;;;8.70;80.00;;;;;;5034295;28;20049;-40
2020/12/13 07:49:20;;;;;;;7.15;4.55;;;8.70;80.00;;;;;;5034211;28;20046;-42
2020/12/13 07:51:48;;;;;;;5.55;4.05;;;8.70;80.10;;;;;;5034246;28;20054;-40
2020/12/13 07:54:15;;;;;;;4.97;3.80;;;8.70;80.10;;;;;;5034094;28;20465;-39
2020/12/13 07:56:42;;;;;;;4.25;3.28;;;8.70;80.00;;;;;;5034281;28;20060;-39
2020/12/13 07:59:29;;;;;;;5.43;3.65;;;8.70;80.10;;;;;;5019682;28;20060;-41
2020/12/13 08:01:58;;;;;;;5.30;4.10;;;8.70;80.00;;;;;;5033868;28;20464;-39
2020/12/13 08:04:33;;;;;;;5.57;3.78;;;8.60;80.00;;;;;;5034217;28;20092;-40
2020/12/13 08:07:17;;;;;;;4.80;3.42;;;8.70;80.00;;;;;;5033761;28;20052;-42
2020/12/13 08:09:43;;;;;;;5.18;3.90;;;8.70;80.00;;;;;;5033998;28;20103;-41
2020/12/13 08:12:13;;;;;;;4.97;3.80;;;8.70;80.70;;;;;;5033758;28;20501;-41
2020/12/13 08:14:39;;;;;;;4.95;3.83;;;8.70;80.00;;;;;;5033619;28;20053;-41
2020/12/13 08:17:05;;;;;;;4.80;4.00;;;8.70;80.00;;;;;;5033301;28;20053;-40
2020/12/13 08:19:41;;;;;;;5.22;3.75;;;8.70;80.00;;;;;;5033926;28;20090;-41
2020/12/13 08:22:28;;;;;;;5.13;3.55;;;8.70;80.00;;;;;;5033101;28;20060;-41
2020/12/13 08:25:00;;;;;;;5.43;3.78;;;8.70;80.00;;;;;;5033762;28;20049;-40
2020/12/13 08:27:32;;;;;;;4.63;3.40;;;8.70;80.00;;;;;;5033580;28;20046;-41
2020/12/13 08:29:59;;;;;;;4.50;3.55;;;8.70;80.00;;;;;;5033562;28;20065;-39
2020/12/13 08:32:33;;;;;;;5.53;4.28;;;8.70;80.00;;;;;;5033317;28;20053;-42
2020/12/13 08:35:28;;;;;;;4.70;3.47;;;8.70;80.00;;;;;;5033342;28;20486;-40
2020/12/13 08:37:54;;;;;;;5.47;3.92;;;8.70;80.60;;;;;;4953095;29;20055;-39
2020/12/13 08:40:34;;;;;;;4.32;3.55;;;8.70;80.00;;;;;;4953062;29;20523;-40
2020/12/13 08:43:00;;;;;;;4.40;3.70;;;8.70;80.60;;;;;;4953051;29;20055;-39
2020/12/13 08:45:55;;;;;;;5.85;4.18;;;8.70;80.00;;;;;;4938830;28;20047;-39
2020/12/13 08:48:27;;;;;;;4.63;3.77;;;8.60;79.90;;;;;;4938119;28;20055;-38
2020/12/13 08:51:09;;;;;;;4.78;3.97;;;8.70;80.00;;;;;;4953039;29;20310;-40
2020/12/13 08:53:35;;;;;;;4.55;3.72;;;8.70;79.90;;;;;;4953061;29;20102;-40
2020/12/13 08:56:13;;;;;;;4.93;3.50;;;8.70;80.00;;;;;;4952750;29;20051;-39
2020/12/13 08:58:51;;;;;;;5.25;3.90;;;8.70;80.00;;;;;;4952932;29;20074;-42
2020/12/13 09:01:21;;;;;;;4.22;3.30;;;8.70;80.00;;;;;;4965296;28;20058;-39
2020/12/13 09:03:46;;;;;;;4.30;3.33;;;8.70;80.00;;;;;;4966623;28;20554;-41
2020/12/13 09:06:23;;;;;;;4.95;3.70;;;8.70;80.60;;;;;;4971228;28;20121;-39
2020/12/13 09:08:49;;;;;;;4.97;3.58;;;8.70;80.00;;;;;;4971990;28;20062;-38
2020/12/13 09:11:32;;;;;;;4.90;4.18;;;8.70;79.90;;;;;;4971719;28;20053;-40
2020/12/13 09:14:25;;;;;;;4.82;3.30;;;8.70;79.90;;;;;;4979003;28;20052;-41
2020/12/13 09:17:11;;;;;;;5.32;3.58;;;8.70;79.90;;;;;;5008890;28;20410;-42
2020/12/13 09:19:51;;;;;;;4.35;3.35;;;8.70;80.00;;;;;;5032710;28;20056;-42
2020/12/13 09:22:22;;;;;;;4.88;3.83;;;8.70;79.90;;;;;;5032531;28;20107;-45
2020/12/13 09:25:07;;;;;;;4.75;3.50;;;8.70;79.90;;;;;;5018300;28;20394;-42
2020/12/13 09:27:34;;;;;;;6.18;4.25;;;8.70;79.90;;;;;;5033028;28;20057;-40
2020/12/13 09:29:59;;;;;;;4.47;3.70;;;8.70;79.90;;;;;;5033104;28;20859;-43
2020/12/13 09:32:46;;;;;;;4.93;3.65;;;8.70;79.90;;;;;;5017563;28;20440;-40
2020/12/13 09:35:12;;;;;;;5.85;4.20;;;8.70;79.90;;;;;;5032727;28;20050;-40
2020/12/13 09:37:37;;;;;;;5.30;4.10;;;8.70;79.90;;;;;;5033097;28;20057;-41
2020/12/13 09:40:03;;;;;;;4.53;3.67;;;8.70;79.90;;;;;;5032985;28;20049;-50
2020/12/13 09:42:29;;;;;;;5.13;3.80;;;8.70;79.90;;;;;;5032789;28;20045;-43
2020/12/13 09:44:54;;;;;;;5.70;3.75;;;8.70;79.90;;;;;;5032829;28;20053;-43
2020/12/13 09:47:20;;;;;;;5.43;4.28;;;8.70;79.90;;;;;;5032651;28;20053;-40
2020/12/13 09:49:46;;;;;;;4.80;3.58;;;8.70;79.90;;;;;;5032862;28;20055;-46
2020/12/13 09:52:32;;;;;;;4.93;3.80;;;8.70;79.90;;;;;;5018252;28;20088;-40
2020/12/13 09:54:58;;;;;;;4.60;3.55;;;8.70;79.90;;;;;;5032720;28;20193;-41
2020/12/13 09:57:24;;;;;;;4.32;3.72;;;8.70;79.90;;;;;;5032762;28;20238;-42
2020/12/13 09:59:50;;;;;;;5.38;3.95;;;8.70;79.90;;;;;;5032593;28;20068;-42
2020/12/13 10:02:15;;;;;;;5.28;4.03;;;8.70;79.90;;;;;;5032780;28;20132;-41
2020/12/13 10:04:41;;;;;;;5.53;4.07;;;8.70;79.90;;;;;;5032278;28;20046;-43
2020/12/13 10:10:11;;;;;;;4.85;3.50;;;8.70;79.90;;;;;;5018051;28;20053;-46
2020/12/13 10:12:37;;;;;;;4.30;3.58;;;8.70;79.90;;;;;;5032732;28;20065;-41
2020/12/13 10:15:03;;;;;;;5.32;3.83;;;8.70;79.90;;;;;;5032363;28;20057;-42
2020/12/13 10:17:49;;;;;;;5.07;3.80;;;8.70;79.90;;;;;;5017715;28;20056;-41
2020/12/13 10:20:40;;;;;;;5.47;4.18;;;8.70;80.50;;;;;;5017644;28;20571;-40
2020/12/13 10:23:26;;;;;;;5.63;3.88;;;8.70;79.90;;;;;;4998216;28;20054;-41
2020/12/13 10:26:11;;;;;;;4.65;3.50;;;8.70;79.90;;;;;;4998353;28;20041;-41
2020/12/13 10:28:38;;;;;;;5.57;3.95;;;8.70;79.90;;;;;;5012888;28;20057;-41
2020/12/13 10:31:04;;;;;;;3.75;3.15;;;8.70;79.90;;;;;;5012619;28;20525;-43
2020/12/13 10:33:29;;;;;;;4.93;3.60;;;8.70;79.90;;;;;;5012346;28;20058;-41
2020/12/13 10:35:55;;;;;;;4.28;3.40;;;8.70;79.90;;;;;;5012397;28;20065;-41
2020/12/13 10:38:21;;;;;;;4.90;3.58;;;8.70;79.90;;;;;;5012681;28;20049;-40
2020/12/13 10:40:46;;;;;;;4.78;3.45;;;8.70;79.90;;;;;;5012789;28;20478;-40
2020/12/13 10:43:12;;;;;;;5.07;3.67;;;8.70;79.90;;;;;;5012625;28;20053;-41
2020/12/13 10:45:37;;;;;;;4.15;3.50;;;8.70;79.90;;;;;;5016534;28;20050;-42
2020/12/13 10:48:03;;;;;;;5.60;3.95;;;8.70;79.90;;;;;;5016213;28;20129;-43
2020/12/13 10:50:37;;;;;;;5.13;3.60;;;8.70;79.90;;;;;;5015754;28;20112;-42
2020/12/13 10:53:23;;;;;;;5.03;3.72;;;8.70;79.90;;;;;;5001288;28;20046;-40
2020/12/13 10:55:49;;;;;;;4.97;3.90;;;8.70;79.90;;;;;;5015614;28;20049;-41
2020/12/13 10:58:34;;;;;;;5.13;3.78;;;8.70;79.90;;;;;;5001404;28;20053;-41
2020/12/13 11:01:03;;;;;;;5.50;4.03;;;8.70;79.90;;;;;;5015818;28;20120;-45
2020/12/13 11:03:29;;;;;;;5.60;4.03;;;8.70;79.90;;;;;;5015895;28;20054;-43
2020/12/13 11:05:55;;;;;;;5.45;3.78;;;8.70;79.90;;;;;;5015637;28;20050;-41
2020/12/13 11:08:23;;;;;;;5.40;4.10;;;8.70;79.90;;;;;;5015974;28;20107;-42
2020/12/13 11:10:50;;;;;;;4.47;3.47;;;8.70;79.90;;;;;;5015771;28;20448;-42
2020/12/13 11:13:17;;;;;;;5.13;4.03;;;8.70;79.90;;;;;;5020067;28;20050;-50
2020/12/13 11:15:44;;;;;;;5.80;3.88;;;8.70;79.90;;;;;;5020224;28;20502;-40
2020/12/13 11:18:09;;;;;;;5.35;3.70;;;8.70;79.90;;;;;;5034553;28;20052;-41
2020/12/13 11:20:56;;;;;;;6.15;3.90;;;8.80;80.00;;;;;;5020061;28;20045;-46
2020/12/13 11:23:41;;;;;;;4.50;3.33;;;8.70;80.50;;;;;;5014776;28;20060;-47
2020/12/13 11:26:07;;;;;;;3.92;3.28;;;8.70;79.90;;;;;;5034285;28;20132;-44
2020/12/13 11:28:53;;;;;;;5.18;3.95;;;8.70;79.90;;;;;;5010311;28;20051;-42
2020/12/13 11:31:19;;;;;;;4.80;3.63;;;8.70;79.90;;;;;;5034359;28;20050;-42
2020/12/13 11:34:05;;;;;;;5.03;3.78;;;8.70;79.90;;;;;;5033719;28;20052;-40
2020/12/13 11:36:30;;;;;;;6.63;3.70;;;8.70;79.90;;;;;;5034531;28;20053;-43
2020/12/13 11:38:56;;;;;;;5.70;3.85;;;8.70;79.80;;;;;;5034694;28;20076;-43
2020/12/13 11:41:29;;;;;;;5.53;3.88;;;8.70;79.90;;;;;;5034918;28;20057;-42
2020/12/13 11:43:55;;;;;;;5.25;3.55;;;8.80;80.00;;;;;;5034697;28;20511;-43
2020/12/13 11:46:21;;;;;;;13.80;8.18;;;8.70;79.90;;;;;;5034821;28;20037;-42
2020/12/13 11:49:07;;;;;;;9.05;6.40;;;8.70;80.30;;;;;;5033784;28;20045;-42
2020/12/13 11:51:52;;;;;;;8.68;6.13;;;8.70;80.20;;;;;;5033535;28;20045;-40
2020/12/13 11:54:18;;;;;;;10.63;7.05;;;8.70;80.20;;;;;;5034629;28;20053;-41
2020/12/13 11:57:04;;;;;;;8.23;6.00;;;8.70;80.20;;;;;;5033424;28;20104;-43
2020/12/13 11:59:50;;;;;;;8.38;6.13;;;8.70;80.30;;;;;;5033789;28;20053;-42
2020/12/13 12:02:35;;;;;;;9.00;6.05;;;8.70;80.20;;;;;;5033664;28;20056;-41
2020/12/13 12:05:01;;;;;;;9.70;6.45;;;8.80;80.30;;;;;;5034375;28;20132;-40
2020/12/13 12:07:46;;;;;;;9.05;6.47;;;8.70;80.20;;;;;;5033034;28;20056;-41
2020/12/13 12:10:13;;;;;;;11.40;6.85;;;8.70;80.20;;;;;;5034578;28;20061;-42
2020/12/13 12:12:38;;;;;;;11.05;7.25;;;8.70;80.20;;;;;;5034531;28;20446;-42
2020/12/13 12:15:04;;;;;;;10.32;6.85;;;8.70;80.20;;;;;;5039528;28;20088;-43
2020/12/13 12:17:30;;;;;;;9.38;6.35;;;8.70;80.20;;;;;;5054379;28;20374;-42
2020/12/13 12:19:55;;;;;;;11.25;6.72;;;8.80;80.20;;;;;;5053970;28;20049;-44
2020/12/13 12:22:21;;;;;;;11.95;7.38;;;8.70;80.20;;;;;;5041393;28;20073;-43
2020/12/13 12:24:47;;;;;;;11.75;6.93;;;8.70;80.10;;;;;;5034084;28;20095;-42
2020/12/13 12:27:12;;;;;;;9.50;6.00;;;8.80;80.20;;;;;;5034190;28;20406;-42
2020/12/13 12:29:59;;;;;;;9.65;6.20;;;8.70;80.10;;;;;;5019502;28;20409;-44
2020/12/13 12:32:25;;;;;;;9.85;6.38;;;8.80;80.20;;;;;;5033956;28;20060;-42
2020/12/13 12:35:11;;;;;;;9.18;5.90;;;8.70;80.10;;;;;;5018746;28;20437;-41
2020/12/13 12:37:56;;;;;;;8.88;6.18;;;8.80;80.20;;;;;;5019037;28;20053;-42
2020/12/13 12:40:23;;;;;;;11.23;6.93;;;8.70;80.10;;;;;;5033910;28;20486;-43
2020/12/13 12:42:48;;;;;;;8.70;6.65;;;8.70;80.10;;;;;;5033967;28;20080;-42
2020/12/13 12:45:14;;;;;;;9.30;5.80;;;8.80;80.10;;;;;;5033898;28;20057;-43
2020/12/13 12:47:40;;;;;;;10.38;6.72;;;8.80;80.10;;;;;;5033346;28;20076;-41
2020/12/13 12:50:05;;;;;;;9.98;6.35;;;8.80;80.10;;;;;;5033866;28;20054;-40
2020/12/13 12:52:31;;;;;;;8.35;6.30;;;8.80;80.10;;;;;;5033525;28;20041;-42
2020/12/13 12:54:57;;;;;;;10.35;6.72;;;8.80;80.10;;;;;;5033418;28;20406;-42
2020/12/13 12:57:23;;;;;;;9.85;6.38;;;8.80;80.10;;;;;;5033419;28;20079;-42
2020/12/13 13:00:18;;;;;;;9.93;6.43;;;8.80;80.10;;;;;;5033412;28;20402;-41
2020/12/13 13:02:34;;;;;;;10.50;6.45;;;8.80;80.10;;;;;;5031670;28;20049;-42
2020/12/13 13:05:33;;;;;;;10.23;6.68;;;8.80;80.10;;;;;;5018850;28;20041;-42
2020/12/13 13:08:07;;;;;;;10.18;6.05;;;8.80;80.10;;;;;;5032155;28;20183;-42
2020/12/13 13:10:33;;;;;;;10.38;6.65;;;8.70;80.00;;;;;;5033230;28;20129;-42
2020/12/13 13:13:19;;;;;;;8.93;5.80;;;8.80;80.10;;;;;;5018652;28;20052;-42
2020/12/13 13:16:05;;;;;;;8.60;6.47;;;8.80;80.10;;;;;;5018168;28;20057;-43
2020/12/13 13:18:35;;;;;;;10.48;6.80;;;8.80;80.10;;;;;;5033179;28;20052;-43
2020/12/13 13:21:03;;;;;;;11.57;7.03;;;8.80;80.00;;;;;;5033008;28;20045;-42
2020/12/13 13:23:29;;;;;;;8.40;5.82;;;8.80;80.10;;;;;;5032924;28;20046;-43
2020/12/13 13:25:54;;;;;;;10.98;7.15;;;8.80;80.10;;;;;;5033216;28;20608;-44
2020/12/13 13:28:20;;;;;;;8.55;6.32;;;8.80;80.10;;;;;;5033188;28;20391;-44
2020/12/13 13:30:47;;;;;;;8.57;5.85;;;8.80;80.10;;;;;;5033090;28;20130;-42
2020/12/13 13:33:13;;;;;;;10.32;6.65;;;8.80;80.20;;;;;;5032941;28;20056;-43
2020/12/13 13:35:59;;;;;;;;;;;8.80;80.00;;;;;;5018479;28;20053;-44
2020/12/13 13:38:46;;;;;;;9.05;6.28;;;8.80;80.00;;;;;;5018156;28;20393;-42
2020/12/13 13:41:34;;;;;;;9.10;6.43;;;8.90;80.10;;;;;;5018346;28;20416;-42